createdAt,value
2018-03-06T00:02:23.997Z,99.90
2018-03-06T00:04:51.038Z,99.90
2018-03-06T00:07:18.728Z,99.90
2018-03-06T00:09:45.691Z,99.90
2018-03-06T00:12:12.736Z,99.90
2018-03-06T00:14:40.397Z,99.90
2018-03-06T00:17:07.410Z,99.90
2018-03-06T00:19:34.386Z,99.90
2018-03-06T00:22:02.018Z,99.90
2018-03-06T00:24:29.793Z,99.90
2018-03-06T00:26:57.579Z,99.90
2018-03-06T00:29:25.280Z,99.90
2018-03-06T00:31:52.334Z,99.90
2018-03-06T00:34:19.297Z,99.90
2018-03-06T00:36:46.328Z,99.90
2018-03-06T00:39:13.296Z,99.90
2018-03-06T00:41:40.304Z,99.90
2018-03-06T00:44:07.394Z,99.90
2018-03-06T00:46:34.523Z,99.90
2018-03-06T00:49:01.486Z,99.90
2018-03-06T00:51:28.380Z,99.90
2018-03-06T00:53:55.467Z,99.90
2018-03-06T00:56:25.356Z,99.90
2018-03-06T00:58:52.666Z,99.90
2018-03-06T01:01:19.829Z,99.90
2018-03-06T01:03:46.856Z,99.90
2018-03-06T01:06:13.768Z,99.90
2018-03-06T01:08:40.883Z,99.90
2018-03-06T01:11:07.818Z,99.90
2018-03-06T01:13:34.889Z,99.90
2018-03-06T01:16:01.847Z,99.90
2018-03-06T01:18:28.921Z,99.90
2018-03-06T01:20:55.851Z,99.90
2018-03-06T01:23:22.878Z,99.90
2018-03-06T01:25:49.872Z,99.90
2018-03-06T01:28:16.873Z,99.90
2018-03-06T01:30:43.938Z,99.90
2018-03-06T01:33:10.895Z,99.90
2018-03-06T01:35:37.879Z,99.90
2018-03-06T01:38:04.884Z,99.90
2018-03-06T01:40:32.002Z,99.90
2018-03-06T01:42:59.007Z,99.90
2018-03-06T01:45:26.148Z,99.90
2018-03-06T01:48:00.461Z,99.90
2018-03-06T01:50:27.579Z,99.90
2018-03-06T01:52:54.671Z,99.90
2018-03-06T01:55:21.685Z,99.90
2018-03-06T01:57:49.490Z,99.90
2018-03-06T02:00:16.707Z,99.90
2018-03-06T02:02:43.807Z,99.90
2018-03-06T02:05:10.791Z,99.90
2018-03-06T02:07:37.738Z,99.90
2018-03-06T02:10:04.850Z,99.90
2018-03-06T02:12:35.971Z,99.90
2018-03-06T02:15:02.987Z,99.90
2018-03-06T02:17:30.038Z,99.90
2018-03-06T02:19:57.052Z,99.90
2018-03-06T02:22:24.075Z,99.90
2018-03-06T02:24:52.008Z,99.90
2018-03-06T02:27:18.920Z,99.90
2018-03-06T02:29:46.575Z,99.90
2018-03-06T02:32:14.392Z,99.90
2018-03-06T02:34:41.442Z,99.90
2018-03-06T02:37:08.497Z,99.90
2018-03-06T02:39:35.503Z,99.90
2018-03-06T02:42:02.470Z,99.90
2018-03-06T02:44:29.507Z,99.90
2018-03-06T02:46:56.516Z,99.90
2018-03-06T02:49:23.538Z,99.90
2018-03-06T02:51:50.623Z,99.90
2018-03-06T02:54:17.691Z,99.90
2018-03-06T02:56:44.667Z,99.90
2018-03-06T02:59:11.634Z,99.90
2018-03-06T03:01:38.667Z,99.90
2018-03-06T03:04:05.605Z,99.90
2018-03-06T03:06:32.710Z,99.90
2018-03-06T03:09:00.439Z,99.90
2018-03-06T03:11:27.557Z,99.90
2018-03-06T03:13:55.301Z,99.90
2018-03-06T03:16:22.407Z,99.90
2018-03-06T03:18:49.379Z,99.90
2018-03-06T03:21:16.439Z,99.90
2018-03-06T03:23:43.497Z,99.90
2018-03-06T03:26:10.523Z,99.90
2018-03-06T03:28:37.608Z,99.90
2018-03-06T03:31:04.600Z,99.90
2018-03-06T03:33:31.684Z,99.90
2018-03-06T03:35:58.858Z,99.90
2018-03-06T03:38:25.991Z,99.90
2018-03-06T03:40:53.018Z,99.90
2018-03-06T03:43:20.115Z,99.90
2018-03-06T03:45:47.124Z,99.90
2018-03-06T03:48:14.083Z,99.90
2018-03-06T03:50:41.740Z,99.90
2018-03-06T03:53:08.691Z,99.90
2018-03-06T03:55:35.669Z,99.90
2018-03-06T03:58:03.359Z,99.90
2018-03-06T04:00:30.439Z,99.90
2018-03-06T04:02:57.388Z,99.90
2018-03-06T04:05:24.358Z,99.90
2018-03-06T04:07:51.415Z,99.90
2018-03-06T04:10:19.222Z,99.90
2018-03-06T04:12:46.275Z,99.90
2018-03-06T04:15:13.338Z,99.90
2018-03-06T04:17:40.339Z,99.90
2018-03-06T04:20:07.340Z,99.90
2018-03-06T04:22:35.175Z,99.90
2018-03-06T04:25:02.305Z,99.90
2018-03-06T04:27:30.061Z,99.90
2018-03-06T04:29:57.206Z,99.90
2018-03-06T04:32:24.324Z,99.90
2018-03-06T04:34:51.294Z,99.90
2018-03-06T04:37:18.285Z,99.90
2018-03-06T04:39:45.339Z,99.90
2018-03-06T04:42:12.284Z,99.90
2018-03-06T04:44:39.283Z,99.90
2018-03-06T04:47:06.283Z,99.90
2018-03-06T04:49:33.343Z,99.90
2018-03-06T04:52:00.390Z,99.90
2018-03-06T04:54:27.390Z,99.90
2018-03-06T04:56:54.381Z,99.90
2018-03-06T04:59:21.434Z,99.90
2018-03-06T05:01:48.374Z,99.90
2018-03-06T05:04:15.415Z,99.90
2018-03-06T05:06:42.326Z,99.90
2018-03-06T05:09:10.103Z,99.90
2018-03-06T05:11:37.866Z,99.90
2018-03-06T05:14:04.944Z,99.90
2018-03-06T05:16:31.977Z,99.90
2018-03-06T05:18:58.934Z,99.90
2018-03-06T05:21:25.989Z,99.90
2018-03-06T05:23:52.985Z,99.90
2018-03-06T05:26:22.183Z,99.90
2018-03-06T05:28:57.229Z,99.90
2018-03-06T05:31:38.215Z,99.90
2018-03-06T05:34:08.864Z,99.90
2018-03-06T05:36:38.416Z,99.90
2018-03-06T05:39:18.477Z,99.90
2018-03-06T05:41:52.485Z,99.90
2018-03-06T05:44:24.687Z,99.90
2018-03-06T05:46:55.841Z,99.90
2018-03-06T05:49:28.414Z,99.90
2018-03-06T05:52:00.504Z,99.90
2018-03-06T05:54:32.418Z,99.90
2018-03-06T05:57:05.142Z,99.90
2018-03-06T05:59:38.525Z,99.90
2018-03-06T06:02:12.298Z,99.90
2018-03-06T06:04:51.741Z,99.90
2018-03-06T06:07:24.678Z,99.90
2018-03-06T06:09:57.512Z,99.90
2018-03-06T06:12:26.946Z,99.90
2018-03-06T06:14:55.893Z,99.90
2018-03-06T06:17:22.819Z,99.90
2018-03-06T06:19:49.700Z,99.90
2018-03-06T06:22:18.669Z,99.90
2018-03-06T06:24:49.025Z,99.90
2018-03-06T06:27:18.303Z,99.90
2018-03-06T06:29:47.427Z,99.90
2018-03-06T06:32:14.303Z,99.90
2018-03-06T06:34:44.194Z,99.90
2018-03-06T06:37:14.214Z,99.90
2018-03-06T06:39:43.368Z,99.90
2018-03-06T06:42:13.209Z,99.90
2018-03-06T06:44:40.072Z,99.90
2018-03-06T06:47:10.149Z,99.90
2018-03-06T06:49:39.710Z,99.90
2018-03-06T06:52:09.502Z,99.90
2018-03-06T06:54:39.124Z,99.90
2018-03-06T06:57:08.220Z,99.90
2018-03-06T06:59:37.999Z,99.90
2018-03-06T07:02:08.416Z,99.90
2018-03-06T07:04:40.869Z,99.90
2018-03-06T07:07:10.353Z,99.90
2018-03-06T07:09:39.737Z,99.90
2018-03-06T07:12:09.135Z,99.90
2018-03-06T07:14:41.902Z,99.90
2018-03-06T07:17:09.011Z,99.90
2018-03-06T07:19:39.137Z,99.90
2018-03-06T07:22:10.281Z,99.90
2018-03-06T07:24:41.920Z,99.90
2018-03-06T07:27:12.073Z,99.90
2018-03-06T07:29:41.780Z,99.90
2018-03-06T07:32:11.355Z,99.90
2018-03-06T07:34:41.031Z,99.90
2018-03-06T07:37:10.731Z,99.90
2018-03-06T07:39:37.595Z,99.90
2018-03-06T07:42:06.620Z,99.90
2018-03-06T07:44:37.308Z,99.90
2018-03-06T07:47:04.196Z,99.90
2018-03-06T07:49:31.147Z,99.90
2018-03-06T07:52:00.230Z,99.90
2018-03-06T07:54:27.112Z,99.90
2018-03-06T07:56:54.788Z,99.90
2018-03-06T07:59:21.712Z,99.90
2018-03-06T08:01:49.323Z,99.90
2018-03-06T08:04:19.565Z,99.90
2018-03-06T08:06:46.668Z,99.90
2018-03-06T08:09:13.590Z,99.90
2018-03-06T08:11:41.223Z,99.90
2018-03-06T08:14:08.157Z,99.90
2018-03-06T08:16:35.081Z,99.90
2018-03-06T08:19:02.052Z,99.90
2018-03-06T08:21:28.935Z,99.90
2018-03-06T08:23:55.974Z,99.90
2018-03-06T08:26:22.831Z,99.90
2018-03-06T08:28:50.424Z,99.90
2018-03-06T08:31:17.359Z,99.90
2018-03-06T08:33:44.284Z,99.90
2018-03-06T08:36:11.165Z,99.90
2018-03-06T08:38:38.020Z,99.30
2018-03-06T08:41:04.958Z,99.80
2018-03-06T08:43:31.819Z,99.50
2018-03-06T08:45:58.748Z,99.30
2018-03-06T08:48:25.671Z,99.40
2018-03-06T08:50:52.549Z,98.90
2018-03-06T08:53:19.484Z,97.50
2018-03-06T08:55:46.351Z,98.50
2018-03-06T08:58:13.211Z,97.20
2018-03-06T09:00:40.151Z,97.30
2018-03-06T09:03:07.104Z,97.10
2018-03-06T09:05:33.975Z,97.30
2018-03-06T09:08:01.639Z,97.50
2018-03-06T09:10:28.584Z,97.20
2018-03-06T09:12:55.534Z,98.30
2018-03-06T09:15:22.460Z,96.60
2018-03-06T09:17:49.391Z,96.80
2018-03-06T09:20:16.334Z,97.00
2018-03-06T09:22:43.224Z,97.10
2018-03-06T09:25:10.186Z,97.40
2018-03-06T09:27:37.076Z,96.90
2018-03-06T09:30:03.984Z,97.10
2018-03-06T09:32:30.943Z,95.70
2018-03-06T09:34:57.837Z,95.10
2018-03-06T09:37:24.705Z,94.30
2018-03-06T09:39:51.633Z,92.80
2018-03-06T09:42:18.523Z,93.20
2018-03-06T09:44:45.468Z,91.50
2018-03-06T09:47:12.342Z,93.30
2018-03-06T09:49:39.375Z,94.50
2018-03-06T09:52:06.247Z,94.80
2018-03-06T09:54:34.613Z,95.80
2018-03-06T09:57:01.596Z,94.90
2018-03-06T09:59:28.536Z,95.20
2018-03-06T10:01:56.169Z,94.40
2018-03-06T10:04:23.096Z,94.40
2018-03-06T10:06:50.040Z,94.40
2018-03-06T10:09:17.570Z,94.50
2018-03-06T10:11:44.538Z,94.80
2018-03-06T10:14:11.427Z,95.20
2018-03-06T10:16:38.374Z,95.00
2018-03-06T10:19:05.322Z,96.00
2018-03-06T10:21:32.196Z,95.00
2018-03-06T10:23:59.120Z,95.40
2018-03-06T10:26:27.266Z,94.70
2018-03-06T10:28:54.361Z,93.90
2018-03-06T10:31:21.935Z,94.00
2018-03-06T10:33:48.921Z,92.10
2018-03-06T10:36:15.887Z,92.10
2018-03-06T10:38:42.819Z,92.70
2018-03-06T10:41:09.742Z,92.30
2018-03-06T10:43:36.667Z,91.60
2018-03-06T10:46:03.583Z,89.80
2018-03-06T10:48:30.518Z,89.00
2018-03-06T10:50:57.451Z,86.40
2018-03-06T10:53:24.380Z,85.20
2018-03-06T10:55:51.305Z,86.20
2018-03-06T10:58:18.180Z,89.90
2018-03-06T11:00:46.987Z,89.10
2018-03-06T11:03:13.925Z,87.60
2018-03-06T11:05:40.878Z,87.70
2018-03-06T11:08:07.790Z,92.20
2018-03-06T11:10:34.670Z,90.10
2018-03-06T11:13:02.354Z,90.90
2018-03-06T11:15:29.970Z,90.00
2018-03-06T11:17:56.916Z,90.00
2018-03-06T11:20:23.784Z,90.10
2018-03-06T11:22:50.710Z,84.20
2018-03-06T11:25:17.635Z,82.00
2018-03-06T11:27:44.559Z,82.20
2018-03-06T11:30:11.422Z,80.30
2018-03-06T11:32:38.455Z,80.70
2018-03-06T11:35:05.314Z,82.80
2018-03-06T11:37:32.207Z,82.30
2018-03-06T11:39:59.143Z,84.90
2018-03-06T11:42:26.025Z,79.40
2018-03-06T11:44:53.703Z,78.00
2018-03-06T11:47:20.619Z,78.10
2018-03-06T11:49:47.499Z,77.60
2018-03-06T11:52:14.431Z,79.40
2018-03-06T11:54:41.300Z,81.20
2018-03-06T11:57:08.162Z,75.50
2018-03-06T11:59:35.199Z,78.00
2018-03-06T12:02:02.081Z,77.30
2018-03-06T12:04:29.015Z,77.40
2018-03-06T12:06:55.950Z,77.60
2018-03-06T12:09:22.802Z,77.90
2018-03-06T12:11:49.723Z,78.20
2018-03-06T12:14:16.584Z,77.70
2018-03-06T12:16:43.519Z,75.70
2018-03-06T12:19:10.455Z,77.30
2018-03-06T12:21:37.327Z,77.00
2018-03-06T12:24:06.195Z,76.00
2018-03-06T12:26:33.196Z,77.80
2018-03-06T12:29:02.472Z,76.30
2018-03-06T12:31:40.708Z,75.50
2018-03-06T12:34:07.593Z,75.60
2018-03-06T12:36:46.438Z,74.00
2018-03-06T12:39:28.115Z,75.20
2018-03-06T12:41:58.273Z,75.20
2018-03-06T12:44:25.263Z,74.90
2018-03-06T12:46:52.122Z,73.00
2018-03-06T12:49:19.063Z,73.60
2018-03-06T12:51:46.029Z,73.10
2018-03-06T12:54:13.003Z,73.50
2018-03-06T12:56:39.941Z,74.40
2018-03-06T12:59:06.880Z,77.00
2018-03-06T13:01:33.827Z,77.20
2018-03-06T13:04:02.100Z,77.80
2018-03-06T13:06:29.843Z,74.70
2018-03-06T13:09:09.477Z,77.00
2018-03-06T13:11:49.358Z,76.00
2018-03-06T13:14:29.876Z,77.80
2018-03-06T13:17:07.186Z,77.90
2018-03-06T13:22:13.486Z,75.80
2018-03-06T13:24:50.239Z,74.80
2018-03-06T13:27:21.290Z,76.20
2018-03-06T13:29:49.311Z,77.20
2018-03-06T13:32:17.707Z,77.70
2018-03-06T13:34:44.683Z,77.70
2018-03-06T13:37:13.169Z,77.90
2018-03-06T13:39:40.208Z,77.30
2018-03-06T13:42:07.156Z,77.10
2018-03-06T13:44:34.791Z,77.20
2018-03-06T13:47:01.731Z,77.10
2018-03-06T13:49:28.653Z,76.70
2018-03-06T13:51:55.584Z,77.60
2018-03-06T13:54:22.510Z,77.70
2018-03-06T13:56:49.438Z,77.20
2018-03-06T13:59:16.295Z,77.20
2018-03-06T14:01:43.245Z,76.60
2018-03-06T14:04:10.112Z,75.80
2018-03-06T14:06:37.007Z,75.60
2018-03-06T14:09:04.707Z,73.50
2018-03-06T14:11:31.576Z,73.10
2018-03-06T14:13:58.589Z,71.50
2018-03-06T14:16:25.520Z,72.90
2018-03-06T14:18:53.165Z,73.10
2018-03-06T14:21:20.103Z,73.10
2018-03-06T14:23:46.956Z,73.40
2018-03-06T14:26:13.879Z,73.60
2018-03-06T14:28:40.812Z,73.60
2018-03-06T14:31:07.760Z,76.60
2018-03-06T14:33:34.636Z,75.20
2018-03-06T14:36:01.585Z,77.00
2018-03-06T14:38:28.456Z,76.20
2018-03-06T14:40:55.384Z,77.40
2018-03-06T14:43:22.359Z,74.00
2018-03-06T14:45:49.231Z,74.60
2018-03-06T14:48:16.172Z,76.40
2018-03-06T14:50:43.101Z,76.40
2018-03-06T14:53:09.975Z,76.60
2018-03-06T14:55:36.854Z,77.50
2018-03-06T14:58:03.795Z,77.40
2018-03-06T15:00:30.737Z,78.10
2018-03-06T15:02:57.715Z,76.70
2018-03-06T15:05:24.668Z,78.20
2018-03-06T15:07:51.587Z,75.80
2018-03-06T15:10:19.212Z,77.00
2018-03-06T15:12:46.147Z,76.10
2018-03-06T15:15:13.015Z,75.20
2018-03-06T15:17:39.952Z,76.40
2018-03-06T15:20:07.300Z,76.30
2018-03-06T15:22:34.244Z,74.30
2018-03-06T15:25:01.167Z,76.00
2018-03-06T15:27:28.115Z,77.70
2018-03-06T15:29:54.983Z,78.10
2018-03-06T15:32:21.914Z,77.80
2018-03-06T15:34:48.872Z,78.90
2018-03-06T15:37:15.734Z,79.30
2018-03-06T15:39:42.651Z,81.00
2018-03-06T15:42:09.580Z,81.30
2018-03-06T15:44:36.512Z,83.10
2018-03-06T15:47:04.111Z,85.70
2018-03-06T15:49:30.976Z,85.80
2018-03-06T15:51:57.930Z,85.00
2018-03-06T15:57:07.068Z,88.30
2018-03-06T15:59:34.006Z,88.30
2018-03-06T16:02:01.028Z,87.90
2018-03-06T16:04:31.198Z,87.00
2018-03-06T16:06:58.181Z,87.40
2018-03-06T16:09:35.604Z,87.60
2018-03-06T16:12:16.357Z,87.20
2018-03-06T16:14:51.424Z,87.60
2018-03-06T16:17:24.555Z,88.00
2018-03-06T16:19:57.538Z,90.00
2018-03-06T16:22:28.837Z,90.00
2018-03-06T16:24:55.763Z,91.00
2018-03-06T16:27:36.592Z,90.40
2018-03-06T16:30:04.401Z,90.20
2018-03-06T16:32:39.907Z,90.30
2018-03-06T16:35:06.858Z,90.70
2018-03-06T16:37:33.807Z,91.00
2018-03-06T16:40:00.733Z,91.30
2018-03-06T16:42:27.666Z,91.30
2018-03-06T16:44:54.639Z,92.00
2018-03-06T16:47:21.600Z,92.20
2018-03-06T16:49:48.475Z,92.50
2018-03-06T16:52:15.332Z,92.40
2018-03-06T16:54:42.262Z,92.70
2018-03-06T16:57:09.134Z,93.20
2018-03-06T16:59:36.068Z,93.90
2018-03-06T17:02:02.936Z,93.70
2018-03-06T17:04:29.866Z,95.10
2018-03-06T17:06:56.725Z,94.30
2018-03-06T17:09:23.639Z,94.80
2018-03-06T17:11:50.571Z,95.50
2018-03-06T17:14:17.508Z,95.10
2018-03-06T17:16:44.508Z,95.90
2018-03-06T17:19:12.250Z,96.30
2018-03-06T17:21:39.370Z,96.20
2018-03-06T17:24:14.391Z,97.40
2018-03-06T17:26:47.262Z,97.30
2018-03-06T17:29:23.316Z,97.30
2018-03-06T17:31:56.693Z,97.70
2018-03-06T17:34:33.310Z,98.90
2018-03-06T17:37:06.176Z,99.20
2018-03-06T17:39:40.971Z,99.20
2018-03-06T17:42:13.946Z,99.30
2018-03-06T17:44:55.129Z,99.00
2018-03-06T17:47:35.462Z,99.30
2018-03-06T17:50:10.308Z,99.50
2018-03-06T17:52:56.720Z,99.90
2018-03-06T17:55:35.878Z,99.90
2018-03-06T18:01:05.277Z,99.90
2018-03-06T18:03:33.223Z,99.90
2018-03-06T18:06:00.829Z,99.90
2018-03-06T18:08:27.800Z,99.90
2018-03-06T18:10:56.679Z,99.90
2018-03-06T18:13:23.555Z,99.90
2018-03-06T18:15:50.492Z,99.90
2018-03-06T18:18:17.422Z,99.90
2018-03-06T18:20:44.379Z,99.90
2018-03-06T18:23:11.252Z,99.90
2018-03-06T18:25:39.114Z,99.90
2018-03-06T18:28:06.735Z,99.90
2018-03-06T18:30:33.616Z,99.90
2018-03-06T18:33:01.288Z,99.90
2018-03-06T18:35:28.972Z,99.90
2018-03-06T18:37:55.876Z,99.90
2018-03-06T18:40:22.802Z,99.90
2018-03-06T18:42:49.734Z,99.90
2018-03-06T18:45:16.599Z,99.90
2018-03-06T18:47:43.606Z,99.90
2018-03-06T18:50:22.423Z,99.90
2018-03-06T18:52:49.376Z,99.90
2018-03-06T18:55:16.259Z,99.90
2018-03-06T18:57:43.199Z,99.90
2018-03-06T19:00:29.764Z,99.90
2018-03-06T19:03:09.933Z,99.90
2018-03-06T19:05:49.055Z,99.90
2018-03-06T19:11:02.812Z,99.90
2018-03-06T19:13:29.792Z,99.90
2018-03-06T19:16:03.363Z,99.90
2018-03-06T19:18:30.289Z,99.90
2018-03-06T19:20:57.975Z,99.90
2018-03-06T19:23:24.845Z,99.90
2018-03-06T19:26:00.740Z,99.90
2018-03-06T19:28:41.559Z,99.90
2018-03-06T19:31:26.213Z,99.90
2018-03-06T19:34:08.826Z,99.90
2018-03-06T19:36:51.764Z,99.90
2018-03-06T19:39:33.498Z,99.90
2018-03-06T19:42:01.249Z,99.90
2018-03-06T19:44:28.124Z,99.90
2018-03-06T19:47:00.540Z,99.90
2018-03-06T19:49:35.958Z,99.90
2018-03-06T19:52:11.889Z,99.90
2018-03-06T19:54:38.776Z,99.90
2018-03-06T19:57:17.606Z,99.90
2018-03-06T19:59:44.499Z,99.90
2018-03-06T20:02:14.117Z,99.90
2018-03-06T20:04:41.744Z,99.90
2018-03-06T20:07:08.623Z,99.90
2018-03-06T20:09:35.628Z,99.90
2018-03-06T20:12:02.518Z,99.90
2018-03-06T20:14:36.295Z,99.90
2018-03-06T20:17:03.320Z,99.90
2018-03-06T20:19:36.088Z,99.90
2018-03-06T20:22:18.088Z,99.90
2018-03-06T20:25:02.865Z,99.90
2018-03-06T20:27:43.880Z,99.90
2018-03-06T20:30:29.168Z,99.90
2018-03-06T20:33:12.637Z,99.90
2018-03-06T20:35:40.436Z,99.90
2018-03-06T20:38:07.484Z,99.90
2018-03-06T20:40:34.443Z,99.90
2018-03-06T20:43:01.418Z,99.90
2018-03-06T20:45:43.918Z,99.90
2018-03-06T20:48:11.616Z,99.90
2018-03-06T20:50:38.505Z,99.90
2018-03-06T20:53:11.447Z,99.90
2018-03-06T20:55:38.433Z,99.90
2018-03-06T20:58:05.393Z,99.90
2018-03-06T21:00:32.273Z,99.90
2018-03-06T21:02:59.247Z,99.90
2018-03-06T21:05:31.686Z,99.90
2018-03-06T21:07:59.209Z,99.90
2018-03-06T21:10:41.059Z,99.90
2018-03-06T21:13:22.998Z,99.90
2018-03-06T21:15:50.701Z,99.90
2018-03-06T21:18:18.392Z,99.90
2018-03-06T21:20:45.375Z,99.90
2018-03-06T21:23:25.691Z,99.90
2018-03-06T21:26:06.418Z,99.90
2018-03-06T21:28:48.448Z,99.90
2018-03-06T21:31:30.359Z,99.90
2018-03-06T21:33:58.841Z,99.90
2018-03-06T21:36:25.769Z,99.90
2018-03-06T21:38:53.445Z,99.90
2018-03-06T21:41:21.123Z,99.90
2018-03-06T21:43:48.085Z,99.90
2018-03-06T21:46:15.070Z,99.90
2018-03-06T21:48:41.985Z,99.90
2018-03-06T21:51:08.931Z,99.90
2018-03-06T21:53:35.812Z,99.90
2018-03-06T21:56:02.767Z,99.90
2018-03-06T21:58:29.639Z,99.90
2018-03-06T22:00:56.513Z,99.90
2018-03-06T22:03:23.539Z,99.90
2018-03-06T22:05:50.423Z,99.90
2018-03-06T22:08:17.304Z,99.90
2018-03-06T22:10:44.987Z,99.90
2018-03-06T22:13:11.916Z,99.90
2018-03-06T22:15:39.599Z,99.90
2018-03-06T22:18:06.562Z,99.90
2018-03-06T22:20:33.454Z,99.90
2018-03-06T22:23:00.337Z,99.90
2018-03-06T22:25:27.297Z,99.90
2018-03-06T22:27:54.180Z,99.90
2018-03-06T22:30:21.055Z,99.90
2018-03-06T22:32:48.735Z,99.90
2018-03-06T22:35:15.668Z,99.90
2018-03-06T22:37:42.604Z,99.90
2018-03-06T22:40:09.476Z,99.90
2018-03-06T22:42:36.415Z,99.90
2018-03-06T22:45:03.395Z,99.90
2018-03-06T22:47:30.255Z,99.90
2018-03-06T22:49:57.216Z,99.90
2018-03-06T22:52:24.141Z,99.90
2018-03-06T22:54:51.098Z,99.90
2018-03-06T22:57:19.114Z,99.90
2018-03-06T22:59:46.004Z,99.90
2018-03-06T23:02:13.047Z,99.90
2018-03-06T23:04:39.917Z,99.90
2018-03-06T23:07:06.856Z,99.90
2018-03-06T23:09:33.770Z,99.90
2018-03-06T23:12:00.655Z,99.90
2018-03-06T23:14:27.596Z,99.90
2018-03-06T23:16:54.476Z,99.90
2018-03-06T23:19:21.336Z,99.90
2018-03-06T23:21:48.283Z,99.90
2018-03-06T23:24:15.146Z,99.90
2018-03-06T23:26:42.063Z,99.90
2018-03-06T23:29:09.008Z,99.90
2018-03-06T23:31:35.887Z,99.90
2018-03-06T23:34:08.650Z,99.90
2018-03-06T23:36:35.516Z,99.90
2018-03-06T23:39:02.444Z,99.90
2018-03-06T23:41:29.384Z,99.90
2018-03-06T23:43:56.268Z,99.90
2018-03-06T23:46:23.134Z,99.90
2018-03-06T23:48:52.055Z,99.90
2018-03-06T23:51:20.748Z,99.90
2018-03-06T23:53:49.249Z,99.90
2018-03-06T23:56:16.340Z,99.90
2018-03-06T23:58:44.656Z,99.90
